sensor_id;sensor_type;location;lat;lon;timestamp;temperature;humidity
1021;DHT22;499;42.648;23.270;2022-07-10T00:00:34;15.10;99.90
1021;DHT22;499;42.648;23.270;2022-07-10T00:03:01;15.20;99.90
1021;DHT22;499;42.648;23.270;2022-07-10T00:05:29;15.20;99.90
1021;DHT22;499;42.648;23.270;2022-07-10T00:07:56;15.20;99.90
1021;DHT22;499;42.648;23.270;2022-07-10T00:10:23;15.20;99.90
1021;DHT22;499;42.648;23.270;2022-07-10T00:12:51;15.30;99.90
1021;DHT22;499;42.648;23.270;2022-07-10T00:15:20;15.20;99.90
1021;DHT22;499;42.648;23.270;2022-07-10T00:17:47;15.20;99.90
1021;DHT22;499;42.648;23.270;2022-07-10T00:20:15;15.20;99.90
1021;DHT22;499;42.648;23.270;2022-07-10T00:22:43;15.20;99.90
1021;DHT22;499;42.648;23.270;2022-07-10T00:25:12;15.20;99.90
1021;DHT22;499;42.648;23.270;2022-07-10T00:27:39;15.20;99.90
1021;DHT22;499;42.648;23.270;2022-07-10T00:30:07;15.20;99.90
1021;DHT22;499;42.648;23.270;2022-07-10T00:32:36;15.20;99.90
1021;DHT22;499;42.648;23.270;2022-07-10T00:35:04;15.20;99.90
1021;DHT22;499;42.648;23.270;2022-07-10T00:37:31;15.20;99.90
1021;DHT22;499;42.648;23.270;2022-07-10T00:39:59;15.20;99.90
1021;DHT22;499;42.648;23.270;2022-07-10T00:42:26;15.10;99.90
1021;DHT22;499;42.648;23.270;2022-07-10T00:44:54;15.00;99.90
1021;DHT22;499;42.648;23.270;2022-07-10T00:47:21;15.00;99.90
1021;DHT22;499;42.648;23.270;2022-07-10T00:49:49;15.00;99.90
1021;DHT22;499;42.648;23.270;2022-07-10T00:52:17;15.00;99.90
1021;DHT22;499;42.648;23.270;2022-07-10T00:54:46;15.00;99.90
1021;DHT22;499;42.648;23.270;2022-07-10T00:57:17;15.00;99.90
1021;DHT22;499;42.648;23.270;2022-07-10T00:59:44;15.00;99.90
1021;DHT22;499;42.648;23.270;2022-07-10T01:02:11;15.00;99.90
1021;DHT22;499;42.648;23.270;2022-07-10T01:04:39;15.00;99.90
1021;DHT22;499;42.648;23.270;2022-07-10T01:07:08;15.00;99.90
1021;DHT22;499;42.648;23.270;2022-07-10T01:09:35;15.10;99.90
1021;DHT22;499;42.648;23.270;2022-07-10T01:12:03;15.20;99.90
1021;DHT22;499;42.648;23.270;2022-07-10T01:14:30;15.00;99.90
1021;DHT22;499;42.648;23.270;2022-07-10T01:16:58;15.00;99.90
1021;DHT22;499;42.648;23.270;2022-07-10T01:19:25;15.00;99.90
1021;DHT22;499;42.648;23.270;2022-07-10T01:21:53;15.00;99.90
1021;DHT22;499;42.648;23.270;2022-07-10T01:24:21;15.00;99.90
1021;DHT22;499;42.648;23.270;2022-07-10T01:26:48;15.00;99.90
1021;DHT22;499;42.648;23.270;2022-07-10T01:29:15;15.10;99.90
1021;DHT22;499;42.648;23.270;2022-07-10T01:31:42;15.00;99.90
1021;DHT22;499;42.648;23.270;2022-07-10T01:34:10;15.10;99.90
1021;DHT22;499;42.648;23.270;2022-07-10T01:36:38;15.20;99.90
1021;DHT22;499;42.648;23.270;2022-07-10T01:39:07;15.20;99.90
1021;DHT22;499;42.648;23.270;2022-07-10T01:41:34;15.20;99.90
1021;DHT22;499;42.648;23.270;2022-07-10T01:44:01;15.20;99.90
1021;DHT22;499;42.648;23.270;2022-07-10T01:46:28;15.30;99.90
1021;DHT22;499;42.648;23.270;2022-07-10T01:48:56;15.30;99.90
1021;DHT22;499;42.648;23.270;2022-07-10T01:51:23;15.20;99.90
1021;DHT22;499;42.648;23.270;2022-07-10T01:53:50;15.20;99.90
1021;DHT22;499;42.648;23.270;2022-07-10T01:56:19;15.30;99.90
1021;DHT22;499;42.648;23.270;2022-07-10T01:58:46;15.30;99.90
1021;DHT22;499;42.648;23.270;2022-07-10T02:01:13;15.30;99.90
1021;DHT22;499;42.648;23.270;2022-07-10T02:03:40;15.30;99.90
1021;DHT22;499;42.648;23.270;2022-07-10T02:06:24;15.30;99.90
1021;DHT22;499;42.648;23.270;2022-07-10T02:08:52;15.20;99.90
1021;DHT22;499;42.648;23.270;2022-07-10T02:11:20;15.20;99.90
1021;DHT22;499;42.648;23.270;2022-07-10T02:13:47;15.10;99.90
1021;DHT22;499;42.648;23.270;2022-07-10T02:16:14;15.00;99.90
1021;DHT22;499;42.648;23.270;2022-07-10T02:18:41;15.10;99.90
1021;DHT22;499;42.648;23.270;2022-07-10T02:21:09;14.90;99.90
1021;DHT22;499;42.648;23.270;2022-07-10T02:23:36;14.90;99.90
1021;DHT22;499;42.648;23.270;2022-07-10T02:26:05;15.00;99.90
1021;DHT22;499;42.648;23.270;2022-07-10T02:28:33;15.00;99.90
1021;DHT22;499;42.648;23.270;2022-07-10T02:31:00;15.10;99.90
1021;DHT22;499;42.648;23.270;2022-07-10T02:33:27;15.10;99.90
1021;DHT22;499;42.648;23.270;2022-07-10T02:35:54;15.00;99.90
1021;DHT22;499;42.648;23.270;2022-07-10T02:38:21;14.90;99.90
1021;DHT22;499;42.648;23.270;2022-07-10T02:40:48;14.80;99.90
1021;DHT22;499;42.648;23.270;2022-07-10T02:43:15;14.70;99.90
1021;DHT22;499;42.648;23.270;2022-07-10T02:45:44;14.70;99.90
1021;DHT22;499;42.648;23.270;2022-07-10T02:48:11;14.70;99.90
1021;DHT22;499;42.648;23.270;2022-07-10T02:50:38;14.70;99.90
1021;DHT22;499;42.648;23.270;2022-07-10T02:53:05;14.70;99.90
1021;DHT22;499;42.648;23.270;2022-07-10T02:55:32;14.70;99.90
1021;DHT22;499;42.648;23.270;2022-07-10T02:58:00;14.70;99.90
1021;DHT22;499;42.648;23.270;2022-07-10T03:00:27;14.90;99.90
1021;DHT22;499;42.648;23.270;2022-07-10T03:02:56;14.90;99.90
1021;DHT22;499;42.648;23.270;2022-07-10T03:05:23;14.90;99.90
1021;DHT22;499;42.648;23.270;2022-07-10T03:07:50;14.90;99.90
1021;DHT22;499;42.648;23.270;2022-07-10T03:10:17;15.00;99.90
1021;DHT22;499;42.648;23.270;2022-07-10T03:12:44;15.00;99.90
1021;DHT22;499;42.648;23.270;2022-07-10T03:15:13;15.00;99.90
1021;DHT22;499;42.648;23.270;2022-07-10T03:17:40;15.10;99.90
1021;DHT22;499;42.648;23.270;2022-07-10T03:20:09;15.20;99.90
1021;DHT22;499;42.648;23.270;2022-07-10T03:22:37;15.10;99.90
1021;DHT22;499;42.648;23.270;2022-07-10T03:25:05;15.20;99.90
1021;DHT22;499;42.648;23.270;2022-07-10T03:27:32;15.30;99.90
1021;DHT22;499;42.648;23.270;2022-07-10T03:29:59;15.30;99.90
1021;DHT22;499;42.648;23.270;2022-07-10T03:32:26;15.30;99.90
1021;DHT22;499;42.648;23.270;2022-07-10T03:34:53;15.20;99.90
1021;DHT22;499;42.648;23.270;2022-07-10T03:37:22;15.50;99.90
1021;DHT22;499;42.648;23.270;2022-07-10T03:39:49;15.70;99.90
1021;DHT22;499;42.648;23.270;2022-07-10T03:42:16;15.80;98.80
1021;DHT22;499;42.648;23.270;2022-07-10T03:44:43;15.80;97.90
1021;DHT22;499;42.648;23.270;2022-07-10T03:47:11;15.80;98.10
1021;DHT22;499;42.648;23.270;2022-07-10T03:49:38;15.80;97.20
1021;DHT22;499;42.648;23.270;2022-07-10T03:52:06;15.90;98.00
1021;DHT22;499;42.648;23.270;2022-07-10T03:54:34;15.80;97.10
1021;DHT22;499;42.648;23.270;2022-07-10T03:57:02;15.90;97.30
1021;DHT22;499;42.648;23.270;2022-07-10T03:59:46;15.90;97.30
1021;DHT22;499;42.648;23.270;2022-07-10T04:02:13;15.90;96.20
1021;DHT22;499;42.648;23.270;2022-07-10T04:04:40;15.90;97.30
1021;DHT22;499;42.648;23.270;2022-07-10T04:07:07;15.90;97.00
1021;DHT22;499;42.648;23.270;2022-07-10T04:09:38;15.80;96.30
1021;DHT22;499;42.648;23.270;2022-07-10T04:12:05;15.90;96.30
1021;DHT22;499;42.648;23.270;2022-07-10T04:14:32;15.70;96.00
1021;DHT22;499;42.648;23.270;2022-07-10T04:16:59;15.90;96.20
1021;DHT22;499;42.648;23.270;2022-07-10T04:19:26;16.10;95.30
1021;DHT22;499;42.648;23.270;2022-07-10T04:21:53;16.20;94.30
1021;DHT22;499;42.648;23.270;2022-07-10T04:24:20;16.20;91.80
1021;DHT22;499;42.648;23.270;2022-07-10T04:26:49;16.40;92.40
1021;DHT22;499;42.648;23.270;2022-07-10T04:29:16;16.50;93.30
1021;DHT22;499;42.648;23.270;2022-07-10T04:31:43;16.60;92.40
1021;DHT22;499;42.648;23.270;2022-07-10T04:34:10;16.60;90.00
1021;DHT22;499;42.648;23.270;2022-07-10T04:36:37;16.60;91.40
1021;DHT22;499;42.648;23.270;2022-07-10T04:39:04;16.90;89.20
1021;DHT22;499;42.648;23.270;2022-07-10T04:41:31;17.00;84.60
1021;DHT22;499;42.648;23.270;2022-07-10T04:44:00;17.10;84.70
1021;DHT22;499;42.648;23.270;2022-07-10T04:46:27;17.00;81.40
1021;DHT22;499;42.648;23.270;2022-07-10T04:48:54;17.10;83.60
1021;DHT22;499;42.648;23.270;2022-07-10T04:51:21;17.30;81.10
1021;DHT22;499;42.648;23.270;2022-07-10T04:53:49;17.30;79.50
1021;DHT22;499;42.648;23.270;2022-07-10T04:56:16;17.40;80.30
1021;DHT22;499;42.648;23.270;2022-07-10T04:58:43;17.60;78.40
1021;DHT22;499;42.648;23.270;2022-07-10T05:01:12;17.60;70.80
1021;DHT22;499;42.648;23.270;2022-07-10T05:03:39;17.70;73.40
1021;DHT22;499;42.648;23.270;2022-07-10T05:06:06;17.70;70.90
1021;DHT22;499;42.648;23.270;2022-07-10T05:08:33;17.70;67.80
1021;DHT22;499;42.648;23.270;2022-07-10T05:11:00;17.60;67.20
1021;DHT22;499;42.648;23.270;2022-07-10T05:13:27;17.80;72.80
1021;DHT22;499;42.648;23.270;2022-07-10T05:15:54;17.80;73.30
1021;DHT22;499;42.648;23.270;2022-07-10T05:18:23;17.70;63.00
1021;DHT22;499;42.648;23.270;2022-07-10T05:20:50;17.80;64.80
1021;DHT22;499;42.648;23.270;2022-07-10T05:23:17;17.80;68.20
1021;DHT22;499;42.648;23.270;2022-07-10T05:25:44;17.80;67.30
1021;DHT22;499;42.648;23.270;2022-07-10T05:28:11;17.80;63.30
1021;DHT22;499;42.648;23.270;2022-07-10T05:30:40;17.70;66.80
1021;DHT22;499;42.648;23.270;2022-07-10T05:33:07;17.60;69.00
1021;DHT22;499;42.648;23.270;2022-07-10T05:35:36;17.80;71.00
1021;DHT22;499;42.648;23.270;2022-07-10T05:38:03;17.90;66.20
1021;DHT22;499;42.648;23.270;2022-07-10T05:40:30;18.00;68.00
1021;DHT22;499;42.648;23.270;2022-07-10T05:42:57;18.20;66.50
1021;DHT22;499;42.648;23.270;2022-07-10T05:45:24;18.30;69.40
1021;DHT22;499;42.648;23.270;2022-07-10T05:47:52;18.50;63.00
1021;DHT22;499;42.648;23.270;2022-07-10T05:50:19;18.70;60.40
1021;DHT22;499;42.648;23.270;2022-07-10T05:52:47;18.80;59.40
1021;DHT22;499;42.648;23.270;2022-07-10T05:55:14;18.80;55.90
1021;DHT22;499;42.648;23.270;2022-07-10T05:57:42;19.10;54.20
1021;DHT22;499;42.648;23.270;2022-07-10T06:00:10;19.40;50.50
1021;DHT22;499;42.648;23.270;2022-07-10T06:02:37;19.40;51.30
1021;DHT22;499;42.648;23.270;2022-07-10T06:05:05;19.10;45.90
1021;DHT22;499;42.648;23.270;2022-07-10T06:07:32;19.10;46.10
1021;DHT22;499;42.648;23.270;2022-07-10T06:10:01;19.30;46.40
1021;DHT22;499;42.648;23.270;2022-07-10T06:12:28;19.20;42.30
1021;DHT22;499;42.648;23.270;2022-07-10T06:14:55;19.30;43.80
1021;DHT22;499;42.648;23.270;2022-07-10T06:17:22;19.50;37.30
1021;DHT22;499;42.648;23.270;2022-07-10T06:19:49;19.60;41.00
1021;DHT22;499;42.648;23.270;2022-07-10T06:22:16;19.30;39.20
1021;DHT22;499;42.648;23.270;2022-07-10T06:25:02;19.40;43.90
1021;DHT22;499;42.648;23.270;2022-07-10T06:27:30;19.30;41.40
1021;DHT22;499;42.648;23.270;2022-07-10T06:29:57;19.50;37.80
1021;DHT22;499;42.648;23.270;2022-07-10T06:32:25;19.30;35.20
1021;DHT22;499;42.648;23.270;2022-07-10T06:34:53;19.30;37.10
1021;DHT22;499;42.648;23.270;2022-07-10T06:37:20;19.30;35.50
1021;DHT22;499;42.648;23.270;2022-07-10T06:39:48;19.30;39.50
1021;DHT22;499;42.648;23.270;2022-07-10T06:42:16;19.40;36.60
1021;DHT22;499;42.648;23.270;2022-07-10T06:44:44;19.30;35.60
1021;DHT22;499;42.648;23.270;2022-07-10T06:47:12;19.30;38.70
1021;DHT22;499;42.648;23.270;2022-07-10T06:49:57;19.50;35.10
1021;DHT22;499;42.648;23.270;2022-07-10T06:52:24;19.60;30.70
1021;DHT22;499;42.648;23.270;2022-07-10T06:54:52;19.70;34.30
1021;DHT22;499;42.648;23.270;2022-07-10T06:57:21;20.00;35.70
1021;DHT22;499;42.648;23.270;2022-07-10T06:59:48;20.00;33.20
1021;DHT22;499;42.648;23.270;2022-07-10T07:02:16;20.20;33.10
1021;DHT22;499;42.648;23.270;2022-07-10T07:04:43;20.10;30.00
1021;DHT22;499;42.648;23.270;2022-07-10T07:07:10;20.00;33.10
1021;DHT22;499;42.648;23.270;2022-07-10T07:09:37;20.10;33.20
1021;DHT22;499;42.648;23.270;2022-07-10T07:12:05;20.20;36.00
1021;DHT22;499;42.648;23.270;2022-07-10T07:14:34;20.30;35.10
1021;DHT22;499;42.648;23.270;2022-07-10T07:17:01;20.00;33.10
1021;DHT22;499;42.648;23.270;2022-07-10T07:19:31;20.10;30.90
1021;DHT22;499;42.648;23.270;2022-07-10T07:22:19;19.90;31.40
1021;DHT22;499;42.648;23.270;2022-07-10T07:25:04;20.10;33.00
1021;DHT22;499;42.648;23.270;2022-07-10T07:27:32;20.30;31.40
1021;DHT22;499;42.648;23.270;2022-07-10T07:30:03;20.10;33.70
1021;DHT22;499;42.648;23.270;2022-07-10T07:32:30;19.80;34.70
1021;DHT22;499;42.648;23.270;2022-07-10T07:34:58;19.90;35.70
1021;DHT22;499;42.648;23.270;2022-07-10T07:37:35;19.90;37.10
1021;DHT22;499;42.648;23.270;2022-07-10T07:40:03;19.90;34.80
1021;DHT22;499;42.648;23.270;2022-07-10T07:42:31;19.90;34.70
1021;DHT22;499;42.648;23.270;2022-07-10T07:44:58;20.00;32.80
1021;DHT22;499;42.648;23.270;2022-07-10T07:47:27;19.90;32.40
1021;DHT22;499;42.648;23.270;2022-07-10T07:49:54;20.00;34.80
1021;DHT22;499;42.648;23.270;2022-07-10T07:52:21;20.10;35.50
1021;DHT22;499;42.648;23.270;2022-07-10T07:54:48;20.10;34.50
1021;DHT22;499;42.648;23.270;2022-07-10T07:57:16;20.10;32.50
1021;DHT22;499;42.648;23.270;2022-07-10T07:59:44;20.30;36.80
1021;DHT22;499;42.648;23.270;2022-07-10T08:02:11;20.30;28.20
1021;DHT22;499;42.648;23.270;2022-07-10T08:04:39;20.60;28.60
1021;DHT22;499;42.648;23.270;2022-07-10T08:07:06;20.50;26.40
1021;DHT22;499;42.648;23.270;2022-07-10T08:09:34;20.50;27.20
1021;DHT22;499;42.648;23.270;2022-07-10T08:12:01;20.40;26.40
1021;DHT22;499;42.648;23.270;2022-07-10T08:14:29;20.50;25.00
1021;DHT22;499;42.648;23.270;2022-07-10T08:16:56;20.40;26.40
1021;DHT22;499;42.648;23.270;2022-07-10T08:19:23;20.70;26.60
1021;DHT22;499;42.648;23.270;2022-07-10T08:21:52;20.70;22.90
1021;DHT22;499;42.648;23.270;2022-07-10T08:24:19;20.50;23.80
1021;DHT22;499;42.648;23.270;2022-07-10T08:26:46;20.40;22.90
1021;DHT22;499;42.648;23.270;2022-07-10T08:29:13;20.60;25.90
1021;DHT22;499;42.648;23.270;2022-07-10T08:31:40;20.80;24.80
1021;DHT22;499;42.648;23.270;2022-07-10T08:34:07;20.80;22.30
1021;DHT22;499;42.648;23.270;2022-07-10T08:36:35;20.70;22.00
1021;DHT22;499;42.648;23.270;2022-07-10T08:39:03;20.60;23.10
1021;DHT22;499;42.648;23.270;2022-07-10T08:41:31;20.80;24.20
1021;DHT22;499;42.648;23.270;2022-07-10T08:44:00;20.90;23.10
1021;DHT22;499;42.648;23.270;2022-07-10T08:46:27;21.00;21.70
1021;DHT22;499;42.648;23.270;2022-07-10T08:48:59;21.00;22.80
1021;DHT22;499;42.648;23.270;2022-07-10T08:51:35;21.30;21.30
1021;DHT22;499;42.648;23.270;2022-07-10T08:54:04;21.40;22.10
1021;DHT22;499;42.648;23.270;2022-07-10T08:56:33;21.50;19.40
1021;DHT22;499;42.648;23.270;2022-07-10T08:59:02;21.50;19.20
1021;DHT22;499;42.648;23.270;2022-07-10T09:01:30;21.70;21.00
1021;DHT22;499;42.648;23.270;2022-07-10T09:03:58;21.90;20.00
1021;DHT22;499;42.648;23.270;2022-07-10T09:06:25;21.90;20.80
1021;DHT22;499;42.648;23.270;2022-07-10T09:09:03;22.00;18.90
1021;DHT22;499;42.648;23.270;2022-07-10T09:11:32;22.00;19.50
1021;DHT22;499;42.648;23.270;2022-07-10T09:14:00;22.00;19.40
1021;DHT22;499;42.648;23.270;2022-07-10T09:16:31;22.00;19.20
1021;DHT22;499;42.648;23.270;2022-07-10T09:19:15;22.10;20.70
1021;DHT22;499;42.648;23.270;2022-07-10T09:21:43;22.20;19.60
1021;DHT22;499;42.648;23.270;2022-07-10T09:24:12;22.20;19.60
1021;DHT22;499;42.648;23.270;2022-07-10T09:26:40;22.30;18.20
1021;DHT22;499;42.648;23.270;2022-07-10T09:29:09;22.40;19.10
1021;DHT22;499;42.648;23.270;2022-07-10T09:31:50;22.60;20.30
1021;DHT22;499;42.648;23.270;2022-07-10T09:34:17;23.00;19.20
1021;DHT22;499;42.648;23.270;2022-07-10T09:36:45;23.00;17.20
1021;DHT22;499;42.648;23.270;2022-07-10T09:39:13;22.90;17.80
1021;DHT22;499;42.648;23.270;2022-07-10T09:41:40;22.90;18.20
1021;DHT22;499;42.648;23.270;2022-07-10T09:44:07;22.70;18.90
1021;DHT22;499;42.648;23.270;2022-07-10T09:46:37;22.60;19.90
1021;DHT22;499;42.648;23.270;2022-07-10T09:49:06;22.80;18.20
1021;DHT22;499;42.648;23.270;2022-07-10T09:51:35;22.90;18.20
1021;DHT22;499;42.648;23.270;2022-07-10T09:54:04;23.10;17.50
1021;DHT22;499;42.648;23.270;2022-07-10T09:56:39;23.50;17.60
1021;DHT22;499;42.648;23.270;2022-07-10T09:59:10;23.80;16.70
1021;DHT22;499;42.648;23.270;2022-07-10T10:01:43;23.90;16.70
1021;DHT22;499;42.648;23.270;2022-07-10T10:04:12;23.80;15.90
1021;DHT22;499;42.648;23.270;2022-07-10T10:06:40;23.70;17.00
1021;DHT22;499;42.648;23.270;2022-07-10T10:09:12;23.40;16.40
1021;DHT22;499;42.648;23.270;2022-07-10T10:11:44;23.40;18.60
1021;DHT22;499;42.648;23.270;2022-07-10T10:14:15;23.40;17.90
1021;DHT22;499;42.648;23.270;2022-07-10T10:16:46;23.50;16.40
1021;DHT22;499;42.648;23.270;2022-07-10T10:19:14;23.60;16.90
1021;DHT22;499;42.648;23.270;2022-07-10T10:22:01;24.00;16.80
1021;DHT22;499;42.648;23.270;2022-07-10T10:24:31;24.30;17.00
1021;DHT22;499;42.648;23.270;2022-07-10T10:27:00;24.20;15.20
1021;DHT22;499;42.648;23.270;2022-07-10T10:29:28;23.90;17.40
1021;DHT22;499;42.648;23.270;2022-07-10T10:31:56;23.80;17.30
1021;DHT22;499;42.648;23.270;2022-07-10T10:34:38;23.40;17.10
1021;DHT22;499;42.648;23.270;2022-07-10T10:37:06;23.10;18.00
1021;DHT22;499;42.648;23.270;2022-07-10T10:39:53;23.00;19.20
1021;DHT22;499;42.648;23.270;2022-07-10T10:42:36;22.80;16.20
1021;DHT22;499;42.648;23.270;2022-07-10T10:45:26;22.70;16.80
1021;DHT22;499;42.648;23.270;2022-07-10T10:47:58;22.80;17.30
1021;DHT22;499;42.648;23.270;2022-07-10T10:50:37;22.90;17.80
1021;DHT22;499;42.648;23.270;2022-07-10T10:53:12;22.90;16.50
1021;DHT22;499;42.648;23.270;2022-07-10T10:55:39;22.90;16.80
1021;DHT22;499;42.648;23.270;2022-07-10T10:58:17;22.90;17.20
1021;DHT22;499;42.648;23.270;2022-07-10T11:00:46;23.30;17.60
1021;DHT22;499;42.648;23.270;2022-07-10T11:03:21;23.40;16.40
1021;DHT22;499;42.648;23.270;2022-07-10T11:05:50;23.10;15.00
1021;DHT22;499;42.648;23.270;2022-07-10T11:08:44;23.10;16.50
1021;DHT22;499;42.648;23.270;2022-07-10T11:11:41;23.50;15.60
1021;DHT22;499;42.648;23.270;2022-07-10T11:14:11;23.80;17.30
1021;DHT22;499;42.648;23.270;2022-07-10T11:16:45;24.10;14.70
1021;DHT22;499;42.648;23.270;2022-07-10T11:19:23;24.50;16.00
1021;DHT22;499;42.648;23.270;2022-07-10T11:22:25;24.80;14.30
1021;DHT22;499;42.648;23.270;2022-07-10T11:25:03;24.60;13.10
1021;DHT22;499;42.648;23.270;2022-07-10T11:27:58;24.40;12.90
1021;DHT22;499;42.648;23.270;2022-07-10T11:30:43;24.50;13.80
1021;DHT22;499;42.648;23.270;2022-07-10T11:33:10;24.40;15.90
1021;DHT22;499;42.648;23.270;2022-07-10T11:35:38;24.20;14.90
1021;DHT22;499;42.648;23.270;2022-07-10T11:38:06;24.10;14.40
1021;DHT22;499;42.648;23.270;2022-07-10T11:40:35;23.80;15.80
1021;DHT22;499;42.648;23.270;2022-07-10T11:43:03;23.80;15.20
1021;DHT22;499;42.648;23.270;2022-07-10T11:45:34;23.70;15.20
1021;DHT22;499;42.648;23.270;2022-07-10T11:48:05;23.90;15.60
1021;DHT22;499;42.648;23.270;2022-07-10T11:50:35;23.90;14.90
1021;DHT22;499;42.648;23.270;2022-07-10T11:53:03;24.20;14.60
1021;DHT22;499;42.648;23.270;2022-07-10T11:55:30;24.30;15.30
1021;DHT22;499;42.648;23.270;2022-07-10T11:58:15;24.40;12.90
1021;DHT22;499;42.648;23.270;2022-07-10T12:00:57;24.80;15.10
1021;DHT22;499;42.648;23.270;2022-07-10T12:03:25;24.50;14.20
1021;DHT22;499;42.648;23.270;2022-07-10T12:05:52;24.60;14.60
1021;DHT22;499;42.648;23.270;2022-07-10T12:08:19;25.00;13.30
1021;DHT22;499;42.648;23.270;2022-07-10T12:10:46;24.70;12.60
1021;DHT22;499;42.648;23.270;2022-07-10T12:13:14;24.50;13.90
1021;DHT22;499;42.648;23.270;2022-07-10T12:15:44;24.30;12.90
1021;DHT22;499;42.648;23.270;2022-07-10T12:18:16;24.10;12.70
1021;DHT22;499;42.648;23.270;2022-07-10T12:20:43;23.60;14.40
1021;DHT22;499;42.648;23.270;2022-07-10T12:23:14;23.40;14.40
1021;DHT22;499;42.648;23.270;2022-07-10T12:25:42;23.30;14.70
1021;DHT22;499;42.648;23.270;2022-07-10T12:28:09;23.50;15.10
1021;DHT22;499;42.648;23.270;2022-07-10T12:30:39;23.50;15.20
1021;DHT22;499;42.648;23.270;2022-07-10T12:33:12;23.50;13.70
1021;DHT22;499;42.648;23.270;2022-07-10T12:35:54;23.30;14.10
1021;DHT22;499;42.648;23.270;2022-07-10T12:38:22;23.30;15.40
1021;DHT22;499;42.648;23.270;2022-07-10T12:40:50;23.40;14.30
1021;DHT22;499;42.648;23.270;2022-07-10T12:43:27;23.40;14.70
1021;DHT22;499;42.648;23.270;2022-07-10T12:46:11;23.40;14.80
1021;DHT22;499;42.648;23.270;2022-07-10T12:48:42;23.50;15.00
1021;DHT22;499;42.648;23.270;2022-07-10T12:51:24;23.50;13.70
1021;DHT22;499;42.648;23.270;2022-07-10T12:53:51;23.40;12.30
1021;DHT22;499;42.648;23.270;2022-07-10T12:56:33;23.30;12.50
1021;DHT22;499;42.648;23.270;2022-07-10T12:59:02;23.10;13.10
1021;DHT22;499;42.648;23.270;2022-07-10T13:01:39;23.10;12.10
1021;DHT22;499;42.648;23.270;2022-07-10T13:04:08;23.10;12.10
1021;DHT22;499;42.648;23.270;2022-07-10T13:06:36;23.10;12.10
1021;DHT22;499;42.648;23.270;2022-07-10T13:09:18;23.20;12.20
1021;DHT22;499;42.648;23.270;2022-07-10T13:11:46;23.50;12.30
1021;DHT22;499;42.648;23.270;2022-07-10T13:14:13;23.40;11.20
1021;DHT22;499;42.648;23.270;2022-07-10T13:16:40;23.50;12.30
1021;DHT22;499;42.648;23.270;2022-07-10T13:19:09;23.70;12.50
1021;DHT22;499;42.648;23.270;2022-07-10T13:21:36;23.70;12.10
1021;DHT22;499;42.648;23.270;2022-07-10T13:24:03;23.70;12.50
1021;DHT22;499;42.648;23.270;2022-07-10T13:26:30;23.70;11.00
1021;DHT22;499;42.648;23.270;2022-07-10T13:28:57;23.50;11.50
1021;DHT22;499;42.648;23.270;2022-07-10T13:31:25;23.40;12.30
1021;DHT22;499;42.648;23.270;2022-07-10T13:33:52;23.20;12.10
1021;DHT22;499;42.648;23.270;2022-07-10T13:36:21;23.20;11.70
1021;DHT22;499;42.648;23.270;2022-07-10T13:38:48;23.30;11.90
1021;DHT22;499;42.648;23.270;2022-07-10T13:41:16;23.20;11.60
1021;DHT22;499;42.648;23.270;2022-07-10T13:43:43;23.10;10.60
1021;DHT22;499;42.648;23.270;2022-07-10T13:46:10;23.00;11.30
1021;DHT22;499;42.648;23.270;2022-07-10T13:48:38;22.80;11.90
1021;DHT22;499;42.648;23.270;2022-07-10T13:51:05;22.80;11.90
1021;DHT22;499;42.648;23.270;2022-07-10T13:53:33;22.80;11.90
1021;DHT22;499;42.648;23.270;2022-07-10T13:56:00;22.90;12.40
1021;DHT22;499;42.648;23.270;2022-07-10T13:58:28;23.10;12.10
1021;DHT22;499;42.648;23.270;2022-07-10T14:00:55;23.00;11.50
1021;DHT22;499;42.648;23.270;2022-07-10T14:03:25;22.90;11.90
1021;DHT22;499;42.648;23.270;2022-07-10T14:05:52;22.90;11.90
1021;DHT22;499;42.648;23.270;2022-07-10T14:08:19;23.00;12.90
1021;DHT22;499;42.648;23.270;2022-07-10T14:10:47;22.80;12.40
1021;DHT22;499;42.648;23.270;2022-07-10T14:13:14;22.70;12.40
1021;DHT22;499;42.648;23.270;2022-07-10T14:15:41;22.60;11.70
1021;DHT22;499;42.648;23.270;2022-07-10T14:18:10;22.60;11.70
1021;DHT22;499;42.648;23.270;2022-07-10T14:20:37;22.80;11.90
1021;DHT22;499;42.648;23.270;2022-07-10T14:23:22;22.90;11.90
1021;DHT22;499;42.648;23.270;2022-07-10T14:25:50;22.50;10.00
1021;DHT22;499;42.648;23.270;2022-07-10T14:28:20;22.10;11.40
1021;DHT22;499;42.648;23.270;2022-07-10T14:30:48;22.20;11.50
1021;DHT22;499;42.648;23.270;2022-07-10T14:33:16;22.20;11.50
1021;DHT22;499;42.648;23.270;2022-07-10T14:35:44;22.00;11.30
1021;DHT22;499;42.648;23.270;2022-07-10T14:38:11;22.20;11.60
1021;DHT22;499;42.648;23.270;2022-07-10T14:40:38;22.20;13.00
1021;DHT22;499;42.648;23.270;2022-07-10T14:43:06;22.40;11.80
1021;DHT22;499;42.648;23.270;2022-07-10T14:45:33;22.50;11.70
1021;DHT22;499;42.648;23.270;2022-07-10T14:48:00;22.50;11.70
1021;DHT22;499;42.648;23.270;2022-07-10T14:50:27;22.40;11.60
1021;DHT22;499;42.648;23.270;2022-07-10T14:52:55;22.30;11.70
1021;DHT22;499;42.648;23.270;2022-07-10T14:55:22;22.30;13.30
1021;DHT22;499;42.648;23.270;2022-07-10T14:57:49;22.20;13.10
1021;DHT22;499;42.648;23.270;2022-07-10T15:00:18;22.20;13.00
1021;DHT22;499;42.648;23.270;2022-07-10T15:02:45;22.40;13.70
1021;DHT22;499;42.648;23.270;2022-07-10T15:05:12;22.60;13.70
1021;DHT22;499;42.648;23.270;2022-07-10T15:07:40;22.70;13.50
1021;DHT22;499;42.648;23.270;2022-07-10T15:10:07;22.50;14.00
1021;DHT22;499;42.648;23.270;2022-07-10T15:12:35;22.30;13.90
1021;DHT22;499;42.648;23.270;2022-07-10T15:15:04;22.30;14.30
1021;DHT22;499;42.648;23.270;2022-07-10T15:17:34;22.40;14.20
1021;DHT22;499;42.648;23.270;2022-07-10T15:20:02;22.20;12.60
1021;DHT22;499;42.648;23.270;2022-07-10T15:22:29;22.20;13.40
1021;DHT22;499;42.648;23.270;2022-07-10T15:24:58;22.30;13.90
1021;DHT22;499;42.648;23.270;2022-07-10T15:27:25;22.50;14.60
1021;DHT22;499;42.648;23.270;2022-07-10T15:29:52;22.70;14.40
1021;DHT22;499;42.648;23.270;2022-07-10T15:32:20;22.60;14.00
1021;DHT22;499;42.648;23.270;2022-07-10T15:34:49;22.70;14.20
1021;DHT22;499;42.648;23.270;2022-07-10T15:37:16;22.70;14.40
1021;DHT22;499;42.648;23.270;2022-07-10T15:39:43;22.80;13.30
1021;DHT22;499;42.648;23.270;2022-07-10T15:42:11;22.90;12.20
1021;DHT22;499;42.648;23.270;2022-07-10T15:44:39;23.10;12.00
1021;DHT22;499;42.648;23.270;2022-07-10T15:47:07;23.40;11.70
1021;DHT22;499;42.648;23.270;2022-07-10T15:49:34;23.40;10.70
1021;DHT22;499;42.648;23.270;2022-07-10T15:52:03;22.80;10.80
1021;DHT22;499;42.648;23.270;2022-07-10T15:54:31;22.50;10.60
1021;DHT22;499;42.648;23.270;2022-07-10T15:56:58;22.20;12.00
1021;DHT22;499;42.648;23.270;2022-07-10T15:59:25;22.10;13.20
1021;DHT22;499;42.648;23.270;2022-07-10T16:01:53;22.00;14.30
1021;DHT22;499;42.648;23.270;2022-07-10T16:04:21;21.90;15.40
1021;DHT22;499;42.648;23.270;2022-07-10T16:06:50;21.70;16.30
1021;DHT22;499;42.648;23.270;2022-07-10T16:09:19;21.60;16.80
1021;DHT22;499;42.648;23.270;2022-07-10T16:11:46;21.60;17.90
1021;DHT22;499;42.648;23.270;2022-07-10T16:14:13;21.10;17.90